Du har inga inställningar för hoppväder.nu

Hoppväder.nu

Senast uppdaterat 05:41

UTC-tid

2021-03-01 kl. 04:41


Sol och måne

Solen går upp 7:04 och går ner 17:38 (beräknade cirkatider)
Nästa fullmåne blir om 27 dagar (2021-03-28)

METAR

ESGG (Landvetter)
(21 minuter sedan)
ESGG 010420Z 21008KT 0200 R03/0550N R21/0600N FZFG VV002 M00/M01 Q1029 RWY 21 CLEAR AND DRY 51-100 PCT BA GOOD=



ESGP (Säve)
ESGP NIL=



ESIB (Såtenäs)
(21 minuter sedan)
ESIB 010420Z AUTO 22010KT 0900 0500// R01/P2000N R19/1200V1700N FG OVC002/// 01/01 Q1028=



ESGT (Trollhättan/Vänersborg)
(21 minuter sedan)
ESGT 010420Z AUTO 20004KT 0500 R15/1600N R33/P2000N FG OVC001/// 01/00 Q1029=






TAF

ESGG (Landvetter)
(311 minuter sedan)
ESGG 282330Z 0100/0124 15005KT 5000 BCFG BR NSC BECMG 0100/0102 0200 FZFG VV002 TEMPO 0102/0107 0800 BCFG BECMG 0107/0109 CAVOK=



ESGP (Säve)
ESGP



ESIB (Såtenäs)
ESIB



ESGT (Trollhättan/Vänersborg)
ESGT





Kodnycklar till TAF och METAR






LHP

(Vårgårda är område se21k i Delområde 1)

Prognos är inte uppdaterad






Preliminär prognos